Nearby METAR Reports

 

YAMB - Amberley, Australia
Distance from station: WNW 24km
Updated: 20/10/2017 05:30
Overcast
Overcast
 Wind from calm
Wind: Calm
Temperature: 16°C
Dew Point: 16°C
Humidity: 100%
Barometer: 1021 hPa
Clouds: Overcast
Visibility: 10 km
Cloud details: Overcast 1585 m
2017/10/19 19:30 YAMB 191930Z AUTO 00000KT 9999 // OVC052 16/16 Q1021
YBBN - Brisbane Intl Ar, Australia
Distance from station: NNE 44km
Updated: 20/10/2017 05:30
Nearby showers, Mostly cloudy
Nearby showers, Mostly cloudy
 Wind from NE
Wind: NE 7 km/h
Temperature: 20°C
Dew Point: 16°C
Humidity: 78%
Barometer: 1021 hPa
Summary: Nearby Showers
Clouds: Mostly cloudy
Visibility: 10 km
Cloud details: Few Clouds 457 m
Mostly cloudy 1615 m
2017/10/19 19:30 YBBN 191930Z 05004KT 9999 VCSH FEW015 BKN053 20/16 Q1021 NOSIG
YBCG - Coolangatta Aws, Australia
Distance from station: SE 74km
Updated: 20/10/2017 05:30
Partly cloudy
Partly cloudy
 Wind from calm
Wind: Calm
Temperature: 16°C
Dew Point: 15°C
Humidity: 94%
Barometer: 1021 hPa
Clouds: Partly cloudy
Visibility: 10 km
Cloud details: Partly cloudy 1615 m
2017/10/19 19:30 YBCG 191930Z AUTO 00000KT 9999 // SCT053 16/15 Q1021 RF00.0/000.0